Time;durP1;ratioP1;P1;durP2;ratioP2;P2;SDS_P1;SDS_P2;PMS_P1;PMS_P2;Temp;Humidity;BMP_temperature;BMP_pressure;BME280_temperature;BME280_humidity;BME280_pressure;Samples;Min_cycle;Max_cycle;Signal;HPM_P1;HPM_P2
2023/07/27 00:03:25;;;;;;;0.90;0.60;;;;;;;;;;10334202;28;20030;-58
2023/07/27 00:08:26;;;;;;;0.70;0.70;;;;;;;;;;10334694;28;20081;-57
2023/07/27 00:13:27;;;;;;;1.00;0.70;;;;;;;;;;10334735;28;20049;-57
2023/07/27 00:18:27;;;;;;;4.05;0.80;;;;;;;;;;10333627;28;20022;-58
2023/07/27 00:23:28;;;;;;;1.45;0.73;;;;;;;;;;10334006;28;20025;-57
2023/07/27 00:28:28;;;;;;;4.28;0.77;;;;;;;;;;10318898;28;20026;-57
2023/07/27 00:33:29;;;;;;;1.00;0.90;;;;;;;;;;10345664;28;20026;-57
2023/07/27 00:38:29;;;;;;;0.68;0.68;;;;;;;;;;10341210;28;20048;-57
2023/07/27 00:43:30;;;;;;;1.92;0.80;;;;;;;;;;10343839;28;20031;-57
2023/07/27 00:48:31;;;;;;;1.85;0.85;;;;;;;;;;10343510;28;20083;-57
2023/07/27 00:53:31;;;;;;;0.75;0.70;;;;;;;;;;10334244;28;20030;-58
2023/07/27 00:58:32;;;;;;;1.13;0.98;;;;;;;;;;10354341;28;20429;-58
2023/07/27 01:03:34;;;;;;;0.85;0.82;;;;;;;;;;10345109;28;20026;-58
2023/07/27 01:08:35;;;;;;;1.40;0.80;;;;;;;;;;10339243;28;20018;-57
2023/07/27 01:13:56;;;;;;;8.18;1.27;;;;;;;;;;10350666;28;20113;-57
2023/07/27 01:19:24;;;;;;;0.85;0.80;;;;;;;;;;10333649;28;20030;-57
2023/07/27 01:25:01;;;;;;;0.60;0.60;;;;;;;;;;10353754;28;20022;-58
2023/07/27 01:30:28;;;;;;;1.05;0.90;;;;;;;;;;10340725;28;20025;-58
2023/07/27 01:35:47;;;;;;;3.78;0.85;;;;;;;;;;10342639;28;20088;-57
2023/07/27 01:40:49;;;;;;;0.98;0.98;;;;;;;;;;10348917;28;20026;-58
2023/07/27 01:45:51;;;;;;;2.65;0.93;;;;;;;;;;10323206;28;20041;-57
2023/07/27 01:50:53;;;;;;;0.90;0.85;;;;;;;;;;10342228;28;20081;-58
2023/07/27 01:55:55;;;;;;;0.80;0.80;;;;;;;;;;10325603;28;20027;-57
2023/07/27 02:00:56;;;;;;;1.02;0.90;;;;;;;;;;10320680;28;20425;-57
2023/07/27 02:05:57;;;;;;;1.10;0.70;;;;;;;;;;10360510;28;20034;-59
2023/07/27 02:11:04;;;;;;;1.00;0.90;;;;;;;;;;10343438;28;20053;-58
2023/07/27 02:16:22;;;;;;;2.00;1.00;;;;;;;;;;10347212;28;20025;-59
2023/07/27 02:21:25;;;;;;;1.30;1.20;;;;;;;;;;10354564;28;20030;-59
2023/07/27 02:26:27;;;;;;;1.05;1.02;;;;;;;;;;10325048;28;20049;-57
2023/07/27 02:31:28;;;;;;;3.83;0.88;;;;;;;;;;10328352;28;20033;-59
2023/07/27 02:36:28;;;;;;;1.88;0.90;;;;;;;;;;10341838;28;20045;-59
2023/07/27 02:41:29;;;;;;;1.35;0.90;;;;;;;;;;10352890;28;20026;-58
2023/07/27 02:46:30;;;;;;;2.00;0.80;;;;;;;;;;10342659;28;20113;-59
2023/07/27 02:51:30;;;;;;;2.95;1.10;;;;;;;;;;10340591;28;20041;-59
2023/07/27 02:56:31;;;;;;;1.00;0.90;;;;;;;;;;10329000;28;20382;-58
2023/07/27 03:01:31;;;;;;;1.15;0.80;;;;;;;;;;10340066;28;20030;-59
2023/07/27 03:06:32;;;;;;;1.58;1.05;;;;;;;;;;10340635;28;20073;-59
2023/07/27 03:11:32;;;;;;;1.35;1.02;;;;;;;;;;10329504;28;20027;-59
2023/07/27 03:16:34;;;;;;;3.53;1.27;;;;;;;;;;10339396;28;20026;-59
2023/07/27 03:21:35;;;;;;;1.05;0.95;;;;;;;;;;10356894;28;20027;-57
2023/07/27 03:26:36;;;;;;;1.65;1.13;;;;;;;;;;10351958;28;20417;-57
2023/07/27 03:31:38;;;;;;;2.35;1.00;;;;;;;;;;10329104;28;20467;-57
2023/07/27 03:36:39;;;;;;;1.45;1.10;;;;;;;;;;10359717;28;20418;-58
2023/07/27 03:41:39;;;;;;;2.38;1.02;;;;;;;;;;10347958;28;20035;-58
2023/07/27 03:46:40;;;;;;;3.47;1.20;;;;;;;;;;10342395;28;20025;-59
2023/07/27 03:51:40;;;;;;;2.00;0.93;;;;;;;;;;10371422;28;20034;-58
2023/07/27 03:56:41;;;;;;;1.33;1.23;;;;;;;;;;10356461;28;20371;-58
2023/07/27 04:01:41;;;;;;;2.75;1.10;;;;;;;;;;10346549;28;20045;-59
2023/07/27 04:06:42;;;;;;;3.78;1.02;;;;;;;;;;10360047;28;20026;-59
2023/07/27 04:11:43;;;;;;;5.15;1.50;;;;;;;;;;10346038;28;20042;-58
2023/07/27 04:16:43;;;;;;;4.30;1.23;;;;;;;;;;10334096;28;20030;-58
2023/07/27 04:21:44;;;;;;;2.40;1.30;;;;;;;;;;10337645;28;20034;-59
2023/07/27 04:26:44;;;;;;;4.03;1.20;;;;;;;;;;10345942;28;20026;-58
2023/07/27 04:31:45;;;;;;;3.08;1.40;;;;;;;;;;10355095;28;20080;-59
2023/07/27 04:36:47;;;;;;;2.55;1.63;;;;;;;;;;10371439;28;20046;-59
2023/07/27 04:41:47;;;;;;;3.97;1.50;;;;;;;;;;10360769;28;20512;-58
2023/07/27 04:46:48;;;;;;;4.05;1.38;;;;;;;;;;10338055;28;20041;-58
2023/07/27 04:51:49;;;;;;;2.38;1.52;;;;;;;;;;10366009;28;20017;-58
2023/07/27 04:56:49;;;;;;;2.28;1.38;;;;;;;;;;10366955;28;20458;-59
2023/07/27 05:01:50;;;;;;;3.25;1.40;;;;;;;;;;10369888;28;20482;-59
2023/07/27 05:06:50;;;;;;;3.05;1.50;;;;;;;;;;10364194;28;20473;-58
2023/07/27 05:11:51;;;;;;;1.92;1.23;;;;;;;;;;10359896;28;20048;-53
2023/07/27 05:16:51;;;;;;;6.00;1.10;;;;;;;;;;10346488;28;20046;-58
2023/07/27 05:21:52;;;;;;;7.00;1.30;;;;;;;;;;10357563;28;20088;-58
2023/07/27 05:26:52;;;;;;;9.00;1.40;;;;;;;;;;10342566;28;20246;-60
2023/07/27 05:31:53;;;;;;;5.20;1.45;;;;;;;;;;10367396;28;20475;-59
2023/07/27 05:36:54;;;;;;;3.33;1.17;;;;;;;;;;10359916;28;20379;-58
2023/07/27 05:41:54;;;;;;;3.33;1.00;;;;;;;;;;10339099;28;20389;-57
2023/07/27 05:46:56;;;;;;;7.80;1.70;;;;;;;;;;10363637;28;20417;-57
2023/07/27 05:51:56;;;;;;;5.53;1.42;;;;;;;;;;10352600;28;20042;-58
2023/07/27 05:56:58;;;;;;;14.35;1.30;;;;;;;;;;10363731;28;20050;-58
2023/07/27 06:01:58;;;;;;;4.88;1.10;;;;;;;;;;10354889;28;20059;-57
2023/07/27 06:06:59;;;;;;;9.45;1.35;;;;;;;;;;10340829;28;20088;-57
2023/07/27 06:12:00;;;;;;;4.85;1.20;;;;;;;;;;10336317;28;20038;-57
2023/07/27 06:17:01;;;;;;;6.93;1.83;;;;;;;;;;10355825;28;20033;-57
2023/07/27 06:22:02;;;;;;;8.55;1.63;;;;;;;;;;10364541;28;20034;-57
2023/07/27 06:27:03;;;;;;;3.10;1.27;;;;;;;;;;10366220;28;20033;-57
2023/07/27 06:32:04;;;;;;;8.02;1.27;;;;;;;;;;10366854;28;20040;-58
2023/07/27 06:37:07;;;;;;;8.00;1.25;;;;;;;;;;10365077;28;20111;-58
2023/07/27 06:42:07;;;;;;;5.75;1.40;;;;;;;;;;10356249;28;20538;-57
2023/07/27 06:47:08;;;;;;;3.17;1.48;;;;;;;;;;10341768;28;20027;-56
2023/07/27 06:52:09;;;;;;;5.95;1.52;;;;;;;;;;10341178;28;20022;-57
2023/07/27 06:57:10;;;;;;;4.00;1.27;;;;;;;;;;10341084;28;20022;-56
2023/07/27 07:02:10;;;;;;;1.77;1.05;;;;;;;;;;10340402;28;20026;-56
2023/07/27 07:07:11;;;;;;;5.55;1.85;;;;;;;;;;10335593;28;20021;-57
2023/07/27 07:12:12;;;;;;;3.40;1.40;;;;;;;;;;10343332;28;20147;-57
2023/07/27 07:17:13;;;;;;;3.20;1.40;;;;;;;;;;10347542;28;20147;-58
2023/07/27 07:22:13;;;;;;;4.28;1.55;;;;;;;;;;10350560;28;20045;-57
2023/07/27 07:27:14;;;;;;;4.22;1.15;;;;;;;;;;10373037;28;20486;-57
2023/07/27 07:32:15;;;;;;;3.17;1.48;;;;;;;;;;10369642;28;20390;-57
2023/07/27 07:37:15;;;;;;;2.42;1.27;;;;;;;;;;10335000;28;20513;-57
2023/07/27 07:42:16;;;;;;;5.30;1.25;;;;;;;;;;10334780;28;20030;-58
2023/07/27 07:47:16;;;;;;;2.15;1.20;;;;;;;;;;10357742;28;20080;-57
2023/07/27 07:52:17;;;;;;;1.48;1.17;;;;;;;;;;10346266;28;20029;-57
2023/07/27 07:57:19;;;;;;;6.93;1.20;;;;;;;;;;10363098;28;20364;-58
2023/07/27 08:02:20;;;;;;;1.45;1.05;;;;;;;;;;10333936;28;20111;-56
2023/07/27 08:07:21;;;;;;;4.97;1.40;;;;;;;;;;10334550;28;20108;-57
2023/07/27 08:12:21;;;;;;;3.20;1.15;;;;;;;;;;10345956;28;20031;-56
2023/07/27 08:17:22;;;;;;;1.85;1.10;;;;;;;;;;10332819;28;20096;-57
2023/07/27 08:22:24;;;;;;;2.45;1.40;;;;;;;;;;10350611;28;20030;-57
2023/07/27 08:27:24;;;;;;;3.70;1.20;;;;;;;;;;10333693;28;20033;-57
2023/07/27 08:32:25;;;;;;;1.45;1.08;;;;;;;;;;10333156;28;20053;-57
2023/07/27 08:37:25;;;;;;;4.65;1.20;;;;;;;;;;10347113;28;20046;-56
2023/07/27 08:42:27;;;;;;;4.68;1.40;;;;;;;;;;10344335;28;20376;-56
2023/07/27 08:47:28;;;;;;;5.03;1.23;;;;;;;;;;10358872;28;20385;-57
2023/07/27 08:52:29;;;;;;;2.30;1.00;;;;;;;;;;10344505;28;20036;-57
2023/07/27 08:57:31;;;;;;;2.88;1.38;;;;;;;;;;10343801;28;20466;-57
2023/07/27 09:02:31;;;;;;;2.00;1.30;;;;;;;;;;10344367;28;20382;-57
2023/07/27 09:07:32;;;;;;;4.07;1.35;;;;;;;;;;10350687;28;20033;-57
2023/07/27 09:12:33;;;;;;;1.55;1.20;;;;;;;;;;10319061;28;20026;-57
2023/07/27 09:17:34;;;;;;;1.95;1.35;;;;;;;;;;10362992;28;20147;-57
2023/07/27 09:22:36;;;;;;;1.48;1.10;;;;;;;;;;10341168;28;20026;-58
2023/07/27 09:27:44;;;;;;;2.78;1.10;;;;;;;;;;10342754;28;20038;-57
2023/07/27 09:32:47;;;;;;;2.97;1.35;;;;;;;;;;10334648;28;20121;-57
2023/07/27 09:37:50;;;;;;;1.90;1.23;;;;;;;;;;10361391;28;20122;-58
2023/07/27 09:42:51;;;;;;;1.77;1.05;;;;;;;;;;10334977;28;20413;-57
2023/07/27 09:47:53;;;;;;;3.05;1.23;;;;;;;;;;10343056;28;20032;-57
2023/07/27 09:52:55;;;;;;;2.60;1.20;;;;;;;;;;10342344;28;20045;-57
2023/07/27 09:57:58;;;;;;;2.92;1.33;;;;;;;;;;10312235;28;20046;-57
2023/07/27 10:02:58;;;;;;;1.17;1.08;;;;;;;;;;10330299;28;20038;-57
2023/07/27 10:07:59;;;;;;;1.70;1.30;;;;;;;;;;10352942;28;20026;-57
2023/07/27 10:13:35;;;;;;;3.30;1.42;;;;;;;;;;10336730;28;20041;-58
2023/07/27 10:18:48;;;;;;;2.97;1.27;;;;;;;;;;10339734;28;20558;-58
2023/07/27 10:24:01;;;;;;;4.07;1.10;;;;;;;;;;10334346;28;20667;-57
2023/07/27 10:29:23;;;;;;;2.05;1.20;;;;;;;;;;10353055;28;20034;-58
2023/07/27 10:34:25;;;;;;;2.35;1.33;;;;;;;;;;10349521;28;20030;-57
2023/07/27 10:39:56;;;;;;;1.95;1.10;;;;;;;;;;10327933;28;20117;-58
2023/07/27 10:44:58;;;;;;;2.25;1.20;;;;;;;;;;10360152;28;20041;-57
2023/07/27 10:49:59;;;;;;;2.42;1.27;;;;;;;;;;10366791;28;20041;-57
2023/07/27 10:55:03;;;;;;;2.72;1.08;;;;;;;;;;10366154;28;20104;-57
2023/07/27 11:00:05;;;;;;;1.73;1.38;;;;;;;;;;10350694;28;20473;-57
2023/07/27 11:05:07;;;;;;;1.77;1.40;;;;;;;;;;10354340;28;20367;-57
2023/07/27 11:10:13;;;;;;;2.50;1.20;;;;;;;;;;10342347;28;20034;-57
2023/07/27 11:15:20;;;;;;;1.80;1.20;;;;;;;;;;10365240;28;20034;-58
2023/07/27 11:20:24;;;;;;;0.98;0.90;;;;;;;;;;10356874;28;20397;-57
2023/07/27 11:25:30;;;;;;;2.45;1.38;;;;;;;;;;10366352;28;20512;-58
2023/07/27 11:30:31;;;;;;;2.47;1.30;;;;;;;;;;10353434;28;20045;-58
2023/07/27 11:35:32;;;;;;;1.10;1.00;;;;;;;;;;10348543;28;20124;-57
2023/07/27 11:40:33;;;;;;;2.25;1.05;;;;;;;;;;10340986;28;20498;-57
2023/07/27 11:45:34;;;;;;;4.70;1.20;;;;;;;;;;10356568;28;20030;-58
2023/07/27 11:50:38;;;;;;;3.22;1.20;;;;;;;;;;10354320;28;20026;-58
2023/07/27 11:55:39;;;;;;;1.20;1.10;;;;;;;;;;10358383;28;20026;-58
2023/07/27 12:00:39;;;;;;;3.17;1.13;;;;;;;;;;10357453;28;20041;-58
2023/07/27 12:05:40;;;;;;;2.42;1.40;;;;;;;;;;10360579;28;20469;-58
2023/07/27 12:10:53;;;;;;;1.70;1.23;;;;;;;;;;10367141;28;20030;-58
2023/07/27 12:16:01;;;;;;;1.70;1.25;;;;;;;;;;10353549;28;20081;-57
2023/07/27 12:21:02;;;;;;;3.58;1.20;;;;;;;;;;10350867;28;20046;-58
2023/07/27 12:26:03;;;;;;;2.55;1.10;;;;;;;;;;10348450;28;20038;-58
2023/07/27 12:31:04;;;;;;;2.80;1.20;;;;;;;;;;10350261;28;20022;-57
2023/07/27 12:36:05;;;;;;;1.83;1.27;;;;;;;;;;10338164;28;20546;-57
2023/07/27 12:41:06;;;;;;;2.22;1.30;;;;;;;;;;10341131;28;20030;-57
2023/07/27 12:46:06;;;;;;;5.28;1.10;;;;;;;;;;10337480;28;20030;-58
2023/07/27 12:51:08;;;;;;;1.50;1.00;;;;;;;;;;10345749;28;20109;-56
2023/07/27 12:56:08;;;;;;;6.25;1.40;;;;;;;;;;10369465;28;20034;-58
2023/07/27 13:01:09;;;;;;;1.58;1.00;;;;;;;;;;10361952;28;20065;-57
2023/07/27 13:06:09;;;;;;;3.72;1.20;;;;;;;;;;10347984;28;20489;-58
2023/07/27 13:11:10;;;;;;;1.58;1.23;;;;;;;;;;10345812;28;20513;-57
2023/07/27 13:16:10;;;;;;;1.10;1.00;;;;;;;;;;10354303;28;20521;-58
2023/07/27 13:21:11;;;;;;;3.05;1.13;;;;;;;;;;10342931;28;20065;-58
2023/07/27 13:26:13;;;;;;;7.05;1.30;;;;;;;;;;10336923;28;20022;-58
2023/07/27 13:31:18;;;;;;;4.07;1.48;;;;;;;;;;10350652;28;20544;-58
2023/07/27 13:36:19;;;;;;;5.57;1.38;;;;;;;;;;10331531;28;20050;-58
2023/07/27 13:41:19;;;;;;;3.35;1.33;;;;;;;;;;10342620;28;20034;-58
2023/07/27 13:46:22;;;;;;;6.80;1.45;;;;;;;;;;10333817;28;20030;-58
2023/07/27 13:51:22;;;;;;;1.70;1.08;;;;;;;;;;10355255;28;20026;-59
2023/07/27 13:56:23;;;;;;;2.40;1.08;;;;;;;;;;10342897;28;20030;-57
2023/07/27 14:01:24;;;;;;;2.65;1.00;;;;;;;;;;10367256;28;20362;-58
2023/07/27 14:06:24;;;;;;;2.15;1.50;;;;;;;;;;10324842;28;20470;-58
2023/07/27 14:11:25;;;;;;;2.67;1.35;;;;;;;;;;10341128;28;20038;-58
2023/07/27 14:16:25;;;;;;;1.85;1.08;;;;;;;;;;10352618;28;20026;-58
2023/07/27 14:21:26;;;;;;;1.85;1.25;;;;;;;;;;10344211;28;20041;-58
2023/07/27 14:26:27;;;;;;;2.88;0.93;;;;;;;;;;10352050;28;20026;-58
2023/07/27 14:31:27;;;;;;;2.58;1.35;;;;;;;;;;10366582;28;20034;-58
2023/07/27 14:36:28;;;;;;;1.30;1.20;;;;;;;;;;10339336;28;20114;-56
2023/07/27 14:41:28;;;;;;;1.38;1.10;;;;;;;;;;10366337;28;20026;-58
2023/07/27 14:46:32;;;;;;;3.33;1.20;;;;;;;;;;10337922;28;20097;-58
2023/07/27 14:51:32;;;;;;;1.08;1.00;;;;;;;;;;10330661;28;20958;-58
2023/07/27 14:56:33;;;;;;;1.58;1.00;;;;;;;;;;10352233;28;20038;-58
2023/07/27 15:01:34;;;;;;;2.45;1.13;;;;;;;;;;10353865;28;20084;-57
2023/07/27 15:06:34;;;;;;;2.33;1.10;;;;;;;;;;10328217;28;20033;-57
2023/07/27 15:11:35;;;;;;;1.13;1.00;;;;;;;;;;10340938;28;20056;-58
2023/07/27 15:16:36;;;;;;;4.13;1.75;;;;;;;;;;10351696;28;20132;-58
2023/07/27 15:21:36;;;;;;;3.45;1.00;;;;;;;;;;10344687;28;20053;-58
2023/07/27 15:26:38;;;;;;;1.20;1.00;;;;;;;;;;10340340;28;20030;-58
2023/07/27 15:31:38;;;;;;;1.23;1.00;;;;;;;;;;10369907;28;20022;-58
2023/07/27 15:36:39;;;;;;;4.15;1.45;;;;;;;;;;10347245;28;20054;-59
2023/07/27 15:41:39;;;;;;;2.33;1.73;;;;;;;;;;10350260;28;20057;-58
2023/07/27 15:46:41;;;;;;;1.73;1.10;;;;;;;;;;10350623;28;20022;-57
2023/07/27 15:51:42;;;;;;;1.27;1.13;;;;;;;;;;10358646;28;20687;-58
2023/07/27 15:56:43;;;;;;;1.92;1.02;;;;;;;;;;10333722;28;20045;-57
2023/07/27 16:01:43;;;;;;;1.20;0.93;;;;;;;;;;10344182;28;20698;-58
2023/07/27 16:06:44;;;;;;;1.25;1.10;;;;;;;;;;10350906;28;20030;-58
2023/07/27 16:11:44;;;;;;;2.95;1.30;;;;;;;;;;10352403;28;20022;-57
2023/07/27 16:16:45;;;;;;;1.70;1.30;;;;;;;;;;10343260;28;20179;-58
2023/07/27 16:21:46;;;;;;;2.75;1.30;;;;;;;;;;10352472;28;20038;-57
2023/07/27 16:26:47;;;;;;;1.98;1.48;;;;;;;;;;10340025;28;20084;-58
2023/07/27 16:31:47;;;;;;;1.15;1.05;;;;;;;;;;10352693;28;20041;-57
2023/07/27 16:36:48;;;;;;;1.67;1.35;;;;;;;;;;10340942;28;20083;-58
2023/07/27 16:41:48;;;;;;;1.75;1.50;;;;;;;;;;10339743;28;20038;-57
2023/07/27 16:46:51;;;;;;;2.13;1.42;;;;;;;;;;10361448;28;20030;-58
2023/07/27 16:51:52;;;;;;;2.33;1.17;;;;;;;;;;10359113;28;20022;-59
2023/07/27 16:56:52;;;;;;;5.05;1.67;;;;;;;;;;10353989;28;20414;-59
2023/07/27 17:01:53;;;;;;;2.28;1.58;;;;;;;;;;10366105;28;20244;-59
2023/07/27 17:06:54;;;;;;;2.65;1.40;;;;;;;;;;10356043;28;20033;-59
2023/07/27 17:11:55;;;;;;;3.70;1.52;;;;;;;;;;10366024;28;20274;-58
2023/07/27 17:16:56;;;;;;;2.03;1.40;;;;;;;;;;10366589;28;20265;-57
2023/07/27 17:21:56;;;;;;;3.70;1.30;;;;;;;;;;10367339;28;20046;-57
2023/07/27 17:26:57;;;;;;;2.83;1.25;;;;;;;;;;10368588;28;20030;-57
2023/07/27 17:32:00;;;;;;;2.55;1.38;;;;;;;;;;10365940;28;20033;-57
2023/07/27 17:37:00;;;;;;;3.20;1.35;;;;;;;;;;10343514;28;20046;-57
2023/07/27 17:42:01;;;;;;;3.65;1.30;;;;;;;;;;10341512;28;20105;-57
2023/07/27 17:47:02;;;;;;;2.80;1.73;;;;;;;;;;10353554;28;20262;-57
2023/07/27 17:52:02;;;;;;;3.45;1.30;;;;;;;;;;10342351;28;20030;-57
2023/07/27 17:57:03;;;;;;;2.38;1.20;;;;;;;;;;10352313;28;20033;-57
2023/07/27 18:02:04;;;;;;;1.10;1.00;;;;;;;;;;10330207;28;20041;-58
2023/07/27 18:07:05;;;;;;;1.33;1.20;;;;;;;;;;10338492;28;20249;-57
2023/07/27 18:12:06;;;;;;;3.00;1.20;;;;;;;;;;10330828;28;20577;-58
2023/07/27 18:17:07;;;;;;;2.45;1.40;;;;;;;;;;10336651;28;20041;-58
2023/07/27 18:22:07;;;;;;;2.35;1.30;;;;;;;;;;10360387;28;20440;-58
2023/07/27 18:27:08;;;;;;;1.95;1.35;;;;;;;;;;10343326;28;20385;-59
2023/07/27 18:32:09;;;;;;;1.55;1.20;;;;;;;;;;10350489;28;20030;-58
2023/07/27 18:37:09;;;;;;;1.95;1.38;;;;;;;;;;10350572;28;20049;-58
2023/07/27 18:42:10;;;;;;;1.45;1.13;;;;;;;;;;10341026;28;20034;-58
2023/07/27 18:47:11;;;;;;;2.10;1.20;;;;;;;;;;10345124;28;20038;-59
2023/07/27 18:52:11;;;;;;;1.30;1.20;;;;;;;;;;10328726;28;20273;-58
2023/07/27 18:57:12;;;;;;;1.77;1.10;;;;;;;;;;10338881;28;20030;-57
2023/07/27 19:02:12;;;;;;;2.25;1.40;;;;;;;;;;10335267;28;20026;-58
2023/07/27 19:07:13;;;;;;;1.33;1.13;;;;;;;;;;10350331;28;20030;-57
2023/07/27 19:12:13;;;;;;;2.70;1.20;;;;;;;;;;10348646;28;20034;-58
2023/07/27 19:17:14;;;;;;;3.15;1.38;;;;;;;;;;10341654;28;20038;-57
2023/07/27 19:22:14;;;;;;;2.75;1.20;;;;;;;;;;10361080;28;20034;-57
2023/07/27 19:27:15;;;;;;;4.70;1.50;;;;;;;;;;10349688;28;20037;-57
2023/07/27 19:32:16;;;;;;;7.20;1.50;;;;;;;;;;10373636;28;20029;-57
2023/07/27 19:37:16;;;;;;;1.55;1.30;;;;;;;;;;10368797;28;20449;-56
2023/07/27 19:42:17;;;;;;;1.50;1.40;;;;;;;;;;10361663;28;20407;-57
2023/07/27 19:47:17;;;;;;;2.20;1.40;;;;;;;;;;10347189;28;20099;-57
2023/07/27 19:52:18;;;;;;;3.33;1.60;;;;;;;;;;10358216;28;20037;-57
2023/07/27 19:57:18;;;;;;;4.38;1.58;;;;;;;;;;10350999;28;20389;-57
2023/07/27 20:02:19;;;;;;;3.53;1.40;;;;;;;;;;10338192;28;20514;-58
2023/07/27 20:07:20;;;;;;;2.50;1.20;;;;;;;;;;10345361;28;20388;-58
2023/07/27 20:12:20;;;;;;;1.90;1.30;;;;;;;;;;10362899;28;20438;-57
2023/07/27 20:17:21;;;;;;;1.98;1.27;;;;;;;;;;10333709;28;20231;-57
2023/07/27 20:22:22;;;;;;;3.45;1.55;;;;;;;;;;10341792;28;20030;-57
2023/07/27 20:27:22;;;;;;;1.48;1.27;;;;;;;;;;10370087;28;20026;-58
2023/07/27 20:32:23;;;;;;;1.30;1.20;;;;;;;;;;10362669;28;20026;-57
2023/07/27 20:37:23;;;;;;;5.70;1.60;;;;;;;;;;10335543;28;20229;-59
2023/07/27 20:42:24;;;;;;;25.63;2.08;;;;;;;;;;10343046;28;20066;-56
2023/07/27 20:47:25;;;;;;;1.77;1.45;;;;;;;;;;10354435;28;20033;-57
2023/07/27 20:52:26;;;;;;;2.83;1.40;;;;;;;;;;10357601;28;20609;-57
2023/07/27 20:57:26;;;;;;;2.72;1.45;;;;;;;;;;10347546;28;20022;-57
2023/07/27 21:02:27;;;;;;;1.85;1.30;;;;;;;;;;10349763;28;20171;-57
2023/07/27 21:07:29;;;;;;;2.40;1.60;;;;;;;;;;10344598;28;20037;-58
2023/07/27 21:12:29;;;;;;;4.00;1.52;;;;;;;;;;10344295;28;20877;-57
2023/07/27 21:17:30;;;;;;;1.40;1.30;;;;;;;;;;10350399;28;20027;-57
2023/07/27 21:22:31;;;;;;;3.17;1.67;;;;;;;;;;10351303;28;20030;-57
2023/07/27 21:27:31;;;;;;;2.88;1.80;;;;;;;;;;10337043;28;20041;-56
2023/07/27 21:32:32;;;;;;;2.30;1.60;;;;;;;;;;10338824;28;20034;-55
2023/07/27 21:37:32;;;;;;;3.78;1.92;;;;;;;;;;10354503;28;20506;-56
2023/07/27 21:42:33;;;;;;;3.10;2.08;;;;;;;;;;10342809;28;20034;-56
2023/07/27 21:47:34;;;;;;;6.28;2.55;;;;;;;;;;10342385;28;21324;-56
2023/07/27 21:52:35;;;;;;;3.90;2.15;;;;;;;;;;10339518;28;20018;-55
2023/07/27 21:57:35;;;;;;;9.45;2.97;;;;;;;;;;10352592;28;20026;-56
2023/07/27 22:02:36;;;;;;;20.95;2.75;;;;;;;;;;10348680;28;20057;-56
2023/07/27 22:07:37;;;;;;;9.05;2.40;;;;;;;;;;10348058;28;20092;-56
2023/07/27 22:12:38;;;;;;;6.40;2.08;;;;;;;;;;10360227;28;20025;-56
2023/07/27 22:17:39;;;;;;;6.75;2.03;;;;;;;;;;10346107;28;20018;-56
2023/07/27 22:22:40;;;;;;;8.52;2.25;;;;;;;;;;10351041;28;20333;-57
2023/07/27 22:27:40;;;;;;;7.72;2.08;;;;;;;;;;10351645;28;20033;-59
2023/07/27 22:32:41;;;;;;;5.70;2.20;;;;;;;;;;10354148;28;20434;-57
2023/07/27 22:37:42;;;;;;;2.70;1.88;;;;;;;;;;10343160;28;20046;-56
2023/07/27 22:42:43;;;;;;;4.65;1.95;;;;;;;;;;10355954;28;20187;-56
2023/07/27 22:47:43;;;;;;;4.55;1.75;;;;;;;;;;10345914;28;20034;-57
2023/07/27 22:52:44;;;;;;;8.50;2.05;;;;;;;;;;10355488;28;20029;-57
2023/07/27 22:57:44;;;;;;;4.07;1.83;;;;;;;;;;10364419;28;20049;-56
2023/07/27 23:02:45;;;;;;;2.88;1.77;;;;;;;;;;10364186;28;20034;-57
2023/07/27 23:07:46;;;;;;;5.03;1.75;;;;;;;;;;10364594;28;20096;-56
2023/07/27 23:12:46;;;;;;;3.88;1.90;;;;;;;;;;10363331;28;20029;-56
2023/07/27 23:17:47;;;;;;;2.15;1.60;;;;;;;;;;10351689;28;20492;-56
2023/07/27 23:22:47;;;;;;;4.57;1.90;;;;;;;;;;10356463;28;20482;-56
2023/07/27 23:27:48;;;;;;;4.15;2.22;;;;;;;;;;10358960;28;20018;-56
2023/07/27 23:32:48;;;;;;;6.40;2.40;;;;;;;;;;10364151;28;20049;-54
2023/07/27 23:37:49;;;;;;;3.90;1.55;;;;;;;;;;10352672;28;20046;-55
2023/07/27 23:42:50;;;;;;;2.42;1.63;;;;;;;;;;10350742;28;20493;-56
2023/07/27 23:47:50;;;;;;;2.42;1.83;;;;;;;;;;10348694;28;20038;-56
2023/07/27 23:52:51;;;;;;;6.32;1.70;;;;;;;;;;10351466;28;20437;-56
2023/07/27 23:57:52;;;;;;;2.47;2.00;;;;;;;;;;10367340;28;20033;-56
